Time,TemperatureF,DewpointF,PressureIn,WindDirection,WindDirectionDegrees,WindSpeedMPH,WindSpeedGustMPH,Humidity,HourlyPrecipIn,Conditions,Clouds,dailyrainin,SoftwareType,DateUTC
2013-04-18 00:00:00,72.0,72.0,29.71,SE,140,23.0,25.0,100,-99.99,,,-99.99,,2013-04-18 05:00:00,
2013-04-18 00:21:00,72.0,72.0,29.71,SE,140,23.0,25.0,100,-99.99,,,-99.99,,2013-04-18 05:21:00,
2013-04-18 00:32:00,72.0,72.0,29.71,SE,140,23.0,25.0,100,-99.99,,,-99.99,,2013-04-18 05:32:00,
2013-04-18 00:42:00,72.0,72.0,29.71,SE,140,23.0,25.0,100,-99.99,,,-99.99,,2013-04-18 05:42:00,
2013-04-18 00:52:00,72.0,72.0,29.71,SE,140,23.0,25.0,100,-99.99,,,-99.99,,2013-04-18 05:52:00,
2013-04-18 01:00:00,72.0,72.0,29.71,SE,140,22.0,24.0,100,-99.99,,,-99.99,,2013-04-18 06:00:00,
2013-04-18 01:21:00,72.0,72.0,29.71,SE,140,22.0,24.0,100,-99.99,,,-99.99,,2013-04-18 06:21:00,
2013-04-18 01:31:00,72.0,72.0,29.71,SE,140,22.0,24.0,100,-99.99,,,-99.99,,2013-04-18 06:31:00,
2013-04-18 01:41:00,72.0,72.0,29.71,SE,140,22.0,24.0,100,-99.99,,,-99.99,,2013-04-18 06:41:00,
2013-04-18 01:51:00,72.0,72.0,29.71,SE,140,22.0,24.0,100,-99.99,,,-99.99,,2013-04-18 06:51:00,
2013-04-18 02:00:00,72.0,72.0,29.69,SE,130,21.0,23.0,100,-99.99,,,-99.99,,2013-04-18 07:00:00,
2013-04-18 02:31:00,72.0,72.0,29.69,SE,130,21.0,23.0,100,-99.99,,,-99.99,,2013-04-18 07:31:00,
2013-04-18 02:42:00,72.0,72.0,29.69,SE,130,21.0,23.0,100,-99.99,,,-99.99,,2013-04-18 07:42:00,
2013-04-18 02:52:00,72.0,72.0,29.69,SE,130,21.0,23.0,100,-99.99,,,-99.99,,2013-04-18 07:52:00,
2013-04-18 03:00:00,72.0,72.0,29.69,SE,130,17.0,20.0,100,-99.99,,,-99.99,,2013-04-18 08:00:00,
2013-04-18 03:22:00,72.0,72.0,29.69,SE,130,17.0,20.0,100,-99.99,,,-99.99,,2013-04-18 08:22:00,
2013-04-18 03:31:00,72.0,72.0,29.69,SE,130,17.0,20.0,100,-99.99,,,-99.99,,2013-04-18 08:31:00,
2013-04-18 03:41:00,72.0,72.0,29.69,SE,130,17.0,20.0,100,-99.99,,,-99.99,,2013-04-18 08:41:00,
2013-04-18 03:51:00,72.0,72.0,29.69,SE,130,17.0,20.0,100,-99.99,,,-99.99,,2013-04-18 08:51:00,
2013-04-18 04:00:00,72.0,72.0,29.69,SE,130,15.0,17.0,100,-99.99,,,-99.99,,2013-04-18 09:00:00,
2013-04-18 04:22:00,72.0,72.0,29.69,SE,130,15.0,17.0,100,-99.99,,,-99.99,,2013-04-18 09:22:00,
2013-04-18 04:32:00,72.0,72.0,29.69,SE,130,15.0,17.0,100,-99.99,,,-99.99,,2013-04-18 09:32:00,
2013-04-18 04:42:00,72.0,72.0,29.69,SE,130,15.0,17.0,100,-99.99,,,-99.99,,2013-04-18 09:42:00,
2013-04-18 04:52:00,72.0,72.0,29.69,SE,130,15.0,17.0,100,-99.99,,,-99.99,,2013-04-18 09:52:00,
2013-04-18 05:00:00,71.0,71.0,29.65,SE,130,18.0,21.0,100,-99.99,,,-99.99,,2013-04-18 10:00:00,
2013-04-18 05:22:00,71.0,71.0,29.65,SE,130,18.0,21.0,100,-99.99,,,-99.99,,2013-04-18 10:22:00,
2013-04-18 05:32:00,71.0,71.0,29.65,SE,130,18.0,21.0,100,-99.99,,,-99.99,,2013-04-18 10:32:00,
2013-04-18 05:42:00,71.0,71.0,29.65,SE,130,18.0,21.0,100,-99.99,,,-99.99,,2013-04-18 10:42:00,
2013-04-18 05:52:00,71.0,71.0,29.65,SE,130,18.0,21.0,100,-99.99,,,-99.99,,2013-04-18 10:52:00,
2013-04-18 06:00:00,72.0,72.0,29.64,SE,130,24.0,28.0,100,-99.99,,,-99.99,,2013-04-18 11:00:00,
2013-04-18 06:21:00,72.0,72.0,29.64,SE,130,24.0,28.0,100,-99.99,,,-99.99,,2013-04-18 11:21:00,
2013-04-18 06:32:00,72.0,72.0,29.64,SE,130,24.0,28.0,100,-99.99,,,-99.99,,2013-04-18 11:32:00,
2013-04-18 06:42:00,72.0,72.0,29.64,SE,130,24.0,28.0,100,-99.99,,,-99.99,,2013-04-18 11:42:00,
2013-04-18 06:52:00,72.0,72.0,29.64,SE,130,24.0,28.0,100,-99.99,,,-99.99,,2013-04-18 11:52:00,
2013-04-18 07:00:00,72.0,72.0,29.66,SE,130,18.0,20.0,100,-99.99,,,-99.99,,2013-04-18 12:00:00,
2013-04-18 07:21:00,72.0,72.0,29.66,SE,130,18.0,20.0,100,-99.99,,,-99.99,,2013-04-18 12:21:00,
2013-04-18 07:32:00,72.0,72.0,29.66,SE,130,18.0,20.0,100,-99.99,,,-99.99,,2013-04-18 12:32:00,
2013-04-18 07:41:00,72.0,72.0,29.66,SE,130,18.0,20.0,100,-99.99,,,-99.99,,2013-04-18 12:41:00,
2013-04-18 07:52:00,72.0,72.0,29.66,SE,130,18.0,20.0,100,-99.99,,,-99.99,,2013-04-18 12:52:00,
2013-04-18 08:00:00,72.0,72.0,29.67,SE,130,15.0,17.0,100,-99.99,,,-99.99,,2013-04-18 13:00:00,
2013-04-18 08:21:00,72.0,72.0,29.67,SE,130,15.0,17.0,100,-99.99,,,-99.99,,2013-04-18 13:21:00,
2013-04-18 08:32:00,72.0,72.0,29.67,SE,130,15.0,17.0,100,-99.99,,,-99.99,,2013-04-18 13:32:00,
2013-04-18 08:41:00,72.0,72.0,29.67,SE,130,15.0,17.0,100,-99.99,,,-99.99,,2013-04-18 13:41:00,
2013-04-18 08:52:00,72.0,72.0,29.67,SE,130,15.0,17.0,100,-99.99,,,-99.99,,2013-04-18 13:52:00,
2013-04-18 09:00:00,72.0,72.0,29.69,ESE,120,10.0,11.0,100,-99.99,,,-99.99,,2013-04-18 14:00:00,
2013-04-18 09:21:00,72.0,72.0,29.69,ESE,120,10.0,11.0,100,-99.99,,,-99.99,,2013-04-18 14:21:00,
2013-04-18 09:31:00,72.0,72.0,29.69,ESE,120,10.0,11.0,100,-99.99,,,-99.99,,2013-04-18 14:31:00,
2013-04-18 09:42:00,72.0,72.0,29.69,ESE,120,10.0,11.0,100,-99.99,,,-99.99,,2013-04-18 14:42:00,
2013-04-18 09:52:00,72.0,72.0,29.69,ESE,120,10.0,11.0,100,-99.99,,,-99.99,,2013-04-18 14:52:00,
2013-04-18 10:00:00,72.0,72.0,29.70,ESE,110,6.0,6.0,100,-99.99,,,-99.99,,2013-04-18 15:00:00,
2013-04-18 10:22:00,72.0,72.0,29.70,ESE,110,6.0,6.0,100,-99.99,,,-99.99,,2013-04-18 15:22:00,
2013-04-18 10:33:00,72.0,72.0,29.70,ESE,110,6.0,6.0,100,-99.99,,,-99.99,,2013-04-18 15:33:00,
2013-04-18 10:42:00,72.0,72.0,29.70,ESE,110,6.0,6.0,100,-99.99,,,-99.99,,2013-04-18 15:42:00,
2013-04-18 10:52:00,72.0,72.0,29.70,ESE,110,6.0,6.0,100,-99.99,,,-99.99,,2013-04-18 15:52:00,
2013-04-18 11:00:00,72.0,72.0,29.73,ENE,60,1.0,2.0,100,-99.99,,,-99.99,,2013-04-18 16:00:00,
2013-04-18 11:22:00,72.0,72.0,29.73,ENE,60,1.0,2.0,100,-99.99,,,-99.99,,2013-04-18 16:22:00,
2013-04-18 11:32:00,72.0,72.0,29.73,ENE,60,1.0,2.0,100,-99.99,,,-99.99,,2013-04-18 16:32:00,
2013-04-18 11:42:00,72.0,72.0,29.73,ENE,60,1.0,2.0,100,-99.99,,,-99.99,,2013-04-18 16:42:00,
2013-04-18 11:52:00,72.0,72.0,29.73,ENE,60,1.0,2.0,100,-99.99,,,-99.99,,2013-04-18 16:52:00,
2013-04-18 12:00:00,72.0,72.0,29.72,ESE,120,5.0,5.0,100,-99.99,,,-99.99,,2013-04-18 17:00:00,
2013-04-18 12:21:00,72.0,72.0,29.72,ESE,120,5.0,5.0,100,-99.99,,,-99.99,,2013-04-18 17:21:00,
2013-04-18 12:32:00,72.0,72.0,29.72,ESE,120,5.0,5.0,100,-99.99,,,-99.99,,2013-04-18 17:32:00,
2013-04-18 12:42:00,72.0,72.0,29.72,ESE,120,5.0,5.0,100,-99.99,,,-99.99,,2013-04-18 17:42:00,
2013-04-18 12:51:00,72.0,72.0,29.72,ESE,120,5.0,5.0,100,-99.99,,,-99.99,,2013-04-18 17:51:00,
2013-04-18 13:00:00,72.0,72.0,29.72,East,90,2.0,3.0,100,-99.99,,,-99.99,,2013-04-18 18:00:00,
2013-04-18 13:22:00,72.0,72.0,29.72,East,90,2.0,3.0,100,-99.99,,,-99.99,,2013-04-18 18:22:00,
2013-04-18 13:31:00,72.0,72.0,29.72,East,90,2.0,3.0,100,-99.99,,,-99.99,,2013-04-18 18:31:00,
2013-04-18 13:42:00,72.0,72.0,29.72,East,90,2.0,3.0,100,-99.99,,,-99.99,,2013-04-18 18:42:00,
2013-04-18 13:52:00,72.0,72.0,29.72,East,90,2.0,3.0,100,-99.99,,,-99.99,,2013-04-18 18:52:00,
2013-04-18 14:00:00,61.0,61.0,29.77,North,350,28.0,36.0,99,-99.99,,,-99.99,,2013-04-18 19:00:00,
2013-04-18 14:21:00,61.0,61.0,29.77,North,350,28.0,36.0,99,-99.99,,,-99.99,,2013-04-18 19:21:00,
2013-04-18 14:41:00,61.0,61.0,29.77,North,350,28.0,36.0,99,-99.99,,,-99.99,,2013-04-18 19:41:00,
2013-04-18 14:52:00,61.0,61.0,29.77,North,350,28.0,36.0,99,-99.99,,,-99.99,,2013-04-18 19:52:00,
2013-04-18 15:00:00,60.0,59.0,29.81,North,350,29.0,34.0,95,-99.99,,,-99.99,,2013-04-18 20:00:00,
2013-04-18 15:21:00,60.0,59.0,29.81,North,350,29.0,34.0,95,-99.99,,,-99.99,,2013-04-18 20:21:00,
2013-04-18 15:32:00,60.0,59.0,29.81,North,350,29.0,34.0,95,-99.99,,,-99.99,,2013-04-18 20:32:00,
2013-04-18 15:41:00,60.0,59.0,29.81,North,350,29.0,34.0,95,-99.99,,,-99.99,,2013-04-18 20:41:00,
2013-04-18 15:51:00,60.0,59.0,29.81,North,350,29.0,34.0,95,-99.99,,,-99.99,,2013-04-18 20:51:00,
2013-04-18 16:00:00,60.0,56.0,29.80,NNW,340,30.0,34.0,87,-99.99,,,-99.99,,2013-04-18 21:00:00,
2013-04-18 16:21:00,60.0,56.0,29.80,NNW,340,30.0,34.0,87,-99.99,,,-99.99,,2013-04-18 21:21:00,
2013-04-18 16:32:00,60.0,56.0,29.80,NNW,340,30.0,34.0,87,-99.99,,,-99.99,,2013-04-18 21:32:00,
2013-04-18 16:43:00,60.0,56.0,29.80,NNW,340,30.0,34.0,87,-99.99,,,-99.99,,2013-04-18 21:43:00,
2013-04-18 16:52:00,60.0,56.0,29.80,NNW,340,30.0,34.0,87,-99.99,,,-99.99,,2013-04-18 21:52:00,
2013-04-18 17:00:00,59.0,56.0,29.82,North,350,24.0,29.0,88,-99.99,,,-99.99,,2013-04-18 22:00:00,
2013-04-18 17:22:00,59.0,56.0,29.82,North,350,24.0,29.0,88,-99.99,,,-99.99,,2013-04-18 22:22:00,
2013-04-18 17:32:00,59.0,56.0,29.82,North,350,24.0,29.0,88,-99.99,,,-99.99,,2013-04-18 22:32:00,
2013-04-18 17:41:00,59.0,56.0,29.82,North,350,24.0,29.0,88,-99.99,,,-99.99,,2013-04-18 22:41:00,
2013-04-18 17:52:00,59.0,56.0,29.82,North,350,24.0,29.0,88,-99.99,,,-99.99,,2013-04-18 22:52:00,
2013-04-18 18:00:00,61.0,53.0,29.84,North,360,26.0,30.0,74,-99.99,,,-99.99,,2013-04-18 23:00:00,
2013-04-18 18:21:00,61.0,53.0,29.84,North,360,26.0,30.0,74,-99.99,,,-99.99,,2013-04-18 23:21:00,
2013-04-18 18:32:00,61.0,53.0,29.84,North,360,26.0,30.0,74,-99.99,,,-99.99,,2013-04-18 23:32:00,
2013-04-18 18:42:00,61.0,53.0,29.84,North,360,26.0,30.0,74,-99.99,,,-99.99,,2013-04-18 23:42:00,
2013-04-18 18:52:00,61.0,53.0,29.84,North,360,26.0,30.0,74,-99.99,,,-99.99,,2013-04-18 23:52:00,
2013-04-18 19:00:00,62.0,53.0,29.86,North,360,23.0,28.0,72,-99.99,,,-99.99,,2013-04-19 00:00:00,
2013-04-18 19:21:00,62.0,53.0,29.86,North,360,23.0,28.0,72,-99.99,,,-99.99,,2013-04-19 00:21:00,
2013-04-18 19:31:00,62.0,53.0,29.86,North,360,23.0,28.0,72,-99.99,,,-99.99,,2013-04-19 00:31:00,
2013-04-18 19:41:00,62.0,53.0,29.86,North,360,23.0,28.0,72,-99.99,,,-99.99,,2013-04-19 00:41:00,
2013-04-18 19:51:00,62.0,53.0,29.86,North,360,23.0,28.0,72,-99.99,,,-99.99,,2013-04-19 00:51:00,
2013-04-18 20:00:00,61.0,50.0,29.87,North,360,28.0,31.0,66,-99.99,,,-99.99,,2013-04-19 01:00:00,
2013-04-18 20:21:00,61.0,50.0,29.87,North,360,28.0,31.0,66,-99.99,,,-99.99,,2013-04-19 01:21:00,
2013-04-18 20:31:00,61.0,50.0,29.87,North,360,28.0,31.0,66,-99.99,,,-99.99,,2013-04-19 01:31:00,
2013-04-18 20:42:00,61.0,50.0,29.87,North,360,28.0,31.0,66,-99.99,,,-99.99,,2013-04-19 01:42:00,
2013-04-18 20:52:00,61.0,50.0,29.87,North,360,28.0,31.0,66,-99.99,,,-99.99,,2013-04-19 01:52:00,
2013-04-18 21:00:00,61.0,51.0,29.94,North,360,28.0,32.0,69,-99.99,,,-99.99,,2013-04-19 02:00:00,
2013-04-18 21:21:00,61.0,51.0,29.94,North,360,28.0,32.0,69,-99.99,,,-99.99,,2013-04-19 02:21:00,
2013-04-18 21:31:00,61.0,51.0,29.94,North,360,28.0,32.0,69,-99.99,,,-99.99,,2013-04-19 02:31:00,
2013-04-18 21:42:00,61.0,51.0,29.94,North,360,28.0,32.0,69,-99.99,,,-99.99,,2013-04-19 02:42:00,
2013-04-18 21:51:00,61.0,51.0,29.94,North,360,28.0,32.0,69,-99.99,,,-99.99,,2013-04-19 02:51:00,
2013-04-18 22:00:00,60.0,50.0,30.01,North,360,23.0,26.0,69,-99.99,,,-99.99,,2013-04-19 03:00:00,
2013-04-18 22:21:00,60.0,50.0,30.01,North,360,23.0,26.0,69,-99.99,,,-99.99,,2013-04-19 03:21:00,
2013-04-18 22:32:00,60.0,50.0,30.01,North,360,23.0,26.0,69,-99.99,,,-99.99,,2013-04-19 03:32:00,
2013-04-18 22:42:00,60.0,50.0,30.01,North,360,23.0,26.0,69,-99.99,,,-99.99,,2013-04-19 03:42:00,
2013-04-18 22:53:00,60.0,50.0,30.01,North,360,23.0,26.0,69,-99.99,,,-99.99,,2013-04-19 03:53:00,
2013-04-18 23:00:00,60.0,50.0,30.02,North,10,26.0,30.0,69,-99.99,,,-99.99,,2013-04-19 04:00:00,
2013-04-18 23:23:00,60.0,50.0,30.02,North,10,26.0,30.0,69,-99.99,,,-99.99,,2013-04-19 04:23:00,
2013-04-18 23:32:00,60.0,50.0,30.02,North,10,26.0,30.0,69,-99.99,,,-99.99,,2013-04-19 04:32:00,
2013-04-18 23:43:00,60.0,50.0,30.02,North,10,26.0,30.0,69,-99.99,,,-99.99,,2013-04-19 04:43:00,
2013-04-18 23:52:00,60.0,50.0,30.02,North,10,26.0,30.0,69,-99.99,,,-99.99,,2013-04-19 04:52:00,